sensor_id;sensor_type;location;lat;lon;timestamp;temperature;humidity
17387;DHT22;8811;52.398;9.728;2022-07-23T08:21:22;22.50;99.90
17387;DHT22;8811;52.398;9.728;2022-07-23T08:23:49;22.50;99.90
17387;DHT22;8811;52.398;9.728;2022-07-23T08:26:16;22.40;99.90
17387;DHT22;8811;52.398;9.728;2022-07-23T08:28:44;22.50;99.90
17387;DHT22;8811;52.398;9.728;2022-07-23T08:31:11;22.90;99.90
17387;DHT22;8811;52.398;9.728;2022-07-23T08:33:41;23.20;99.90
17387;DHT22;8811;52.398;9.728;2022-07-23T08:36:09;23.30;99.90
17387;DHT22;8811;52.398;9.728;2022-07-23T08:38:39;23.40;99.90
17387;DHT22;8811;52.398;9.728;2022-07-23T08:41:07;23.50;99.90
17387;DHT22;8811;52.398;9.728;2022-07-23T08:43:37;23.60;99.90
17387;DHT22;8811;52.398;9.728;2022-07-23T08:46:06;23.60;99.90
17387;DHT22;8811;52.398;9.728;2022-07-23T08:48:34;23.70;99.90
17387;DHT22;8811;52.398;9.728;2022-07-23T08:51:04;23.80;99.90
17387;DHT22;8811;52.398;9.728;2022-07-23T08:53:34;23.70;99.90
17387;DHT22;8811;52.398;9.728;2022-07-23T08:56:06;23.60;99.90
17387;DHT22;8811;52.398;9.728;2022-07-23T08:58:34;23.50;99.90
17387;DHT22;8811;52.398;9.728;2022-07-23T09:01:03;23.30;99.90
17387;DHT22;8811;52.398;9.728;2022-07-23T09:03:36;23.40;99.90
17387;DHT22;8811;52.398;9.728;2022-07-23T09:06:06;23.40;99.90
17387;DHT22;8811;52.398;9.728;2022-07-23T09:08:39;23.60;99.90
17387;DHT22;8811;52.398;9.728;2022-07-23T09:11:13;23.80;99.90
17387;DHT22;8811;52.398;9.728;2022-07-23T09:13:45;23.90;99.90
17387;DHT22;8811;52.398;9.728;2022-07-23T09:16:14;24.30;99.90
17387;DHT22;8811;52.398;9.728;2022-07-23T09:18:47;24.60;99.90
17387;DHT22;8811;52.398;9.728;2022-07-23T09:21:35;24.50;99.60
17387;DHT22;8811;52.398;9.728;2022-07-23T09:24:08;24.30;99.20
17387;DHT22;8811;52.398;9.728;2022-07-23T09:26:44;24.10;98.60
17387;DHT22;8811;52.398;9.728;2022-07-23T09:29:17;24.00;99.00
17387;DHT22;8811;52.398;9.728;2022-07-23T09:31:50;24.20;99.20
17387;DHT22;8811;52.398;9.728;2022-07-23T09:34:21;24.30;98.80
17387;DHT22;8811;52.398;9.728;2022-07-23T09:36:51;24.20;98.80
17387;DHT22;8811;52.398;9.728;2022-07-23T09:39:27;24.00;98.40
17387;DHT22;8811;52.398;9.728;2022-07-23T09:41:58;23.80;98.70
17387;DHT22;8811;52.398;9.728;2022-07-23T09:44:27;23.90;99.00
17387;DHT22;8811;52.398;9.728;2022-07-23T09:46:58;26.50;99.40
17387;DHT22;8811;52.398;9.728;2022-07-23T09:49:27;24.00;98.70
17387;DHT22;8811;52.398;9.728;2022-07-23T09:52:00;24.20;98.40
17387;DHT22;8811;52.398;9.728;2022-07-23T09:54:32;24.50;98.40
17387;DHT22;8811;52.398;9.728;2022-07-23T09:57:04;24.80;97.50
17387;DHT22;8811;52.398;9.728;2022-07-23T09:59:35;25.10;97.30
17387;DHT22;8811;52.398;9.728;2022-07-23T10:02:09;25.40;95.90
17387;DHT22;8811;52.398;9.728;2022-07-23T10:04:43;25.50;95.40
17387;DHT22;8811;52.398;9.728;2022-07-23T10:07:11;25.70;95.10
17387;DHT22;8811;52.398;9.728;2022-07-23T10:09:41;25.70;95.30
17387;DHT22;8811;52.398;9.728;2022-07-23T10:12:14;25.70;94.80
17387;DHT22;8811;52.398;9.728;2022-07-23T10:14:56;25.50;94.80
17387;DHT22;8811;52.398;9.728;2022-07-23T10:17:24;25.20;94.20
17387;DHT22;8811;52.398;9.728;2022-07-23T10:19:54;24.90;94.20
17387;DHT22;8811;52.398;9.728;2022-07-23T10:22:26;24.80;93.60
17387;DHT22;8811;52.398;9.728;2022-07-23T10:25:08;24.70;93.90
17387;DHT22;8811;52.398;9.728;2022-07-23T10:27:48;24.70;94.30
17387;DHT22;8811;52.398;9.728;2022-07-23T10:30:25;25.10;94.40
17387;DHT22;8811;52.398;9.728;2022-07-23T10:33:09;25.70;93.20
17387;DHT22;8811;52.398;9.728;2022-07-23T10:35:51;26.30;93.40
17387;DHT22;8811;52.398;9.728;2022-07-23T10:38:26;26.80;90.40
17387;DHT22;8811;52.398;9.728;2022-07-23T10:40:56;27.20;91.60
17387;DHT22;8811;52.398;9.728;2022-07-23T10:43:27;27.80;90.60
17387;DHT22;8811;52.398;9.728;2022-07-23T10:45:55;28.50;90.10
17387;DHT22;8811;52.398;9.728;2022-07-23T10:48:24;28.90;85.60
17387;DHT22;8811;52.398;9.728;2022-07-23T10:51:10;28.40;86.10
17387;DHT22;8811;52.398;9.728;2022-07-23T10:53:57;27.80;86.70
17387;DHT22;8811;52.398;9.728;2022-07-23T11:00:16;27.90;86.20
17387;DHT22;8811;52.398;9.728;2022-07-23T11:02:48;28.70;82.90
17387;DHT22;8811;52.398;9.728;2022-07-23T11:05:17;29.60;80.50
17387;DHT22;8811;52.398;9.728;2022-07-23T11:08:15;29.00;79.40
17387;DHT22;8811;52.398;9.728;2022-07-23T11:10:52;28.20;83.00
17387;DHT22;8811;52.398;9.728;2022-07-23T11:13:27;27.60;81.60
17387;DHT22;8811;52.398;9.728;2022-07-23T11:16:29;28.00;81.50
17387;DHT22;8811;52.398;9.728;2022-07-23T11:18:59;27.50;82.60
17387;DHT22;8811;52.398;9.728;2022-07-23T11:21:49;28.90;80.20
17387;DHT22;8811;52.398;9.728;2022-07-23T11:24:22;29.70;76.40
17387;DHT22;8811;52.398;9.728;2022-07-23T11:26:56;30.80;74.30
17387;DHT22;8811;52.398;9.728;2022-07-23T11:29:44;31.70;70.90
17387;DHT22;8811;52.398;9.728;2022-07-23T11:32:30;30.60;73.80
17387;DHT22;8811;52.398;9.728;2022-07-23T11:34:59;29.00;75.70
17387;DHT22;8811;52.398;9.728;2022-07-23T11:37:32;28.30;79.10
17387;DHT22;8811;52.398;9.728;2022-07-23T11:40:02;28.70;80.20
17387;DHT22;8811;52.398;9.728;2022-07-23T11:42:29;29.20;78.30
17387;DHT22;8811;52.398;9.728;2022-07-23T11:44:57;29.90;75.90
17387;DHT22;8811;52.398;9.728;2022-07-23T11:47:29;30.60;75.10
17387;DHT22;8811;52.398;9.728;2022-07-23T11:49:57;31.20;72.30
17387;DHT22;8811;52.398;9.728;2022-07-23T11:52:28;31.50;71.60
17387;DHT22;8811;52.398;9.728;2022-07-23T11:54:57;31.90;69.80
17387;DHT22;8811;52.398;9.728;2022-07-23T11:57:33;32.00;69.90
17387;DHT22;8811;52.398;9.728;2022-07-23T12:00:05;31.50;69.60
17387;DHT22;8811;52.398;9.728;2022-07-23T12:02:38;30.80;70.40
17387;DHT22;8811;52.398;9.728;2022-07-23T12:05:07;31.00;69.50
17387;DHT22;8811;52.398;9.728;2022-07-23T12:07:36;31.80;68.70
17387;DHT22;8811;52.398;9.728;2022-07-23T12:10:10;31.30;69.00
17387;DHT22;8811;52.398;9.728;2022-07-23T12:12:42;30.60;69.20
17387;DHT22;8811;52.398;9.728;2022-07-23T12:15:12;31.80;69.70
17387;DHT22;8811;52.398;9.728;2022-07-23T12:17:45;32.40;67.10
17387;DHT22;8811;52.398;9.728;2022-07-23T12:20:14;31.70;69.20
17387;DHT22;8811;52.398;9.728;2022-07-23T12:22:46;30.80;69.50
17387;DHT22;8811;52.398;9.728;2022-07-23T12:25:15;33.40;67.50
17387;DHT22;8811;52.398;9.728;2022-07-23T12:27:43;35.60;63.80
17387;DHT22;8811;52.398;9.728;2022-07-23T12:30:19;37.10;60.00
17387;DHT22;8811;52.398;9.728;2022-07-23T12:32:53;38.40;57.60
17387;DHT22;8811;52.398;9.728;2022-07-23T12:35:29;35.90;58.10
17387;DHT22;8811;52.398;9.728;2022-07-23T12:38:01;36.40;58.50
17387;DHT22;8811;52.398;9.728;2022-07-23T12:40:34;38.50;55.70
17387;DHT22;8811;52.398;9.728;2022-07-23T12:43:05;39.90;52.80
17387;DHT22;8811;52.398;9.728;2022-07-23T12:45:46;40.60;51.90
17387;DHT22;8811;52.398;9.728;2022-07-23T12:48:23;41.10;50.70
17387;DHT22;8811;52.398;9.728;2022-07-23T12:51:01;40.90;50.00
17387;DHT22;8811;52.398;9.728;2022-07-23T12:53:30;41.70;48.70
17387;DHT22;8811;52.398;9.728;2022-07-23T12:56:01;42.60;46.60
17387;DHT22;8811;52.398;9.728;2022-07-23T12:58:40;38.90;49.10
17387;DHT22;8811;52.398;9.728;2022-07-23T13:01:08;36.70;50.70
17387;DHT22;8811;52.398;9.728;2022-07-23T13:03:41;34.20;54.80
17387;DHT22;8811;52.398;9.728;2022-07-23T13:06:11;36.90;52.50
17387;DHT22;8811;52.398;9.728;2022-07-23T13:08:39;38.90;48.50
17387;DHT22;8811;52.398;9.728;2022-07-23T13:11:07;37.50;49.60
17387;DHT22;8811;52.398;9.728;2022-07-23T13:13:37;39.10;49.20
17387;DHT22;8811;52.398;9.728;2022-07-23T13:16:04;37.70;48.40
17387;DHT22;8811;52.398;9.728;2022-07-23T13:18:34;35.50;51.50
17387;DHT22;8811;52.398;9.728;2022-07-23T13:21:03;38.30;49.30
17387;DHT22;8811;52.398;9.728;2022-07-23T13:23:31;39.70;47.90
17387;DHT22;8811;52.398;9.728;2022-07-23T13:25:58;41.30;46.00
17387;DHT22;8811;52.398;9.728;2022-07-23T13:28:26;42.60;43.80
17387;DHT22;8811;52.398;9.728;2022-07-23T13:30:53;43.10;44.30
17387;DHT22;8811;52.398;9.728;2022-07-23T13:33:22;43.60;43.40
17387;DHT22;8811;52.398;9.728;2022-07-23T13:35:50;42.80;42.00
17387;DHT22;8811;52.398;9.728;2022-07-23T13:38:20;41.30;44.10
17387;DHT22;8811;52.398;9.728;2022-07-23T13:40:49;38.80;45.70
17387;DHT22;8811;52.398;9.728;2022-07-23T13:43:18;38.50;47.80
17387;DHT22;8811;52.398;9.728;2022-07-23T13:45:46;37.80;46.20
17387;DHT22;8811;52.398;9.728;2022-07-23T13:48:14;36.30;49.30
17387;DHT22;8811;52.398;9.728;2022-07-23T13:50:43;36.20;50.10
17387;DHT22;8811;52.398;9.728;2022-07-23T13:53:12;38.00;48.00
17387;DHT22;8811;52.398;9.728;2022-07-23T13:55:41;37.40;46.60
17387;DHT22;8811;52.398;9.728;2022-07-23T13:58:09;37.00;48.30
17387;DHT22;8811;52.398;9.728;2022-07-23T14:00:39;35.60;48.80
17387;DHT22;8811;52.398;9.728;2022-07-23T14:03:06;36.70;48.40
17387;DHT22;8811;52.398;9.728;2022-07-23T14:05:34;38.60;46.20
17387;DHT22;8811;52.398;9.728;2022-07-23T14:08:02;40.00;45.00
17387;DHT22;8811;52.398;9.728;2022-07-23T14:10:32;41.10;43.50
17387;DHT22;8811;52.398;9.728;2022-07-23T14:13:01;41.50;42.70
17387;DHT22;8811;52.398;9.728;2022-07-23T14:15:30;41.20;44.10
17387;DHT22;8811;52.398;9.728;2022-07-23T14:17:58;38.40;44.80
17387;DHT22;8811;52.398;9.728;2022-07-23T14:20:26;38.30;46.30
17387;DHT22;8811;52.398;9.728;2022-07-23T14:22:53;38.70;45.50
17387;DHT22;8811;52.398;9.728;2022-07-23T14:25:22;39.00;45.20
17387;DHT22;8811;52.398;9.728;2022-07-23T14:27:50;37.50;46.10
17387;DHT22;8811;52.398;9.728;2022-07-23T14:30:18;35.20;48.80
17387;DHT22;8811;52.398;9.728;2022-07-23T14:32:46;33.50;52.40
17387;DHT22;8811;52.398;9.728;2022-07-23T14:35:16;32.40;52.90
17387;DHT22;8811;52.398;9.728;2022-07-23T14:37:44;31.80;53.70
17387;DHT22;8811;52.398;9.728;2022-07-23T14:40:12;31.30;55.40
17387;DHT22;8811;52.398;9.728;2022-07-23T14:42:39;30.80;56.30
17387;DHT22;8811;52.398;9.728;2022-07-23T14:45:07;30.20;56.50
17387;DHT22;8811;52.398;9.728;2022-07-23T14:47:41;29.70;56.80
17387;DHT22;8811;52.398;9.728;2022-07-23T14:50:09;29.40;57.90
17387;DHT22;8811;52.398;9.728;2022-07-23T14:52:36;29.00;57.70
17387;DHT22;8811;52.398;9.728;2022-07-23T14:55:04;28.70;58.70
17387;DHT22;8811;52.398;9.728;2022-07-23T14:57:32;28.20;59.70
17387;DHT22;8811;52.398;9.728;2022-07-23T15:00:07;28.10;59.40
17387;DHT22;8811;52.398;9.728;2022-07-23T15:02:37;28.00;60.20
17387;DHT22;8811;52.398;9.728;2022-07-23T15:05:08;28.00;60.60
17387;DHT22;8811;52.398;9.728;2022-07-23T15:07:39;27.70;61.20
17387;DHT22;8811;52.398;9.728;2022-07-23T15:10:07;27.50;60.70
17387;DHT22;8811;52.398;9.728;2022-07-23T15:12:37;27.30;61.40
17387;DHT22;8811;52.398;9.728;2022-07-23T15:15:05;27.10;62.40
17387;DHT22;8811;52.398;9.728;2022-07-23T15:17:33;26.90;62.60
17387;DHT22;8811;52.398;9.728;2022-07-23T15:20:00;26.80;62.90
17387;DHT22;8811;52.398;9.728;2022-07-23T15:22:31;26.60;62.90
17387;DHT22;8811;52.398;9.728;2022-07-23T15:24:58;26.40;63.70
17387;DHT22;8811;52.398;9.728;2022-07-23T15:27:27;26.20;64.50
17387;DHT22;8811;52.398;9.728;2022-07-23T15:29:57;26.10;65.60
17387;DHT22;8811;52.398;9.728;2022-07-23T15:32:24;25.90;65.00
17387;DHT22;8811;52.398;9.728;2022-07-23T15:34:52;25.70;65.00
17387;DHT22;8811;52.398;9.728;2022-07-23T15:37:22;25.70;65.60
17387;DHT22;8811;52.398;9.728;2022-07-23T15:39:53;25.50;65.80
17387;DHT22;8811;52.398;9.728;2022-07-23T15:42:21;25.50;67.10
17387;DHT22;8811;52.398;9.728;2022-07-23T15:44:49;25.50;66.40
17387;DHT22;8811;52.398;9.728;2022-07-23T15:47:19;25.40;67.10
17387;DHT22;8811;52.398;9.728;2022-07-23T15:49:48;25.30;66.50
17387;DHT22;8811;52.398;9.728;2022-07-23T15:52:19;25.30;66.90
17387;DHT22;8811;52.398;9.728;2022-07-23T15:54:46;25.10;66.00
17387;DHT22;8811;52.398;9.728;2022-07-23T15:57:15;25.10;66.20
17387;DHT22;8811;52.398;9.728;2022-07-23T15:59:42;24.90;66.90
17387;DHT22;8811;52.398;9.728;2022-07-23T16:02:09;24.80;67.70
17387;DHT22;8811;52.398;9.728;2022-07-23T16:04:37;24.70;68.10
17387;DHT22;8811;52.398;9.728;2022-07-23T16:07:06;24.70;67.50
17387;DHT22;8811;52.398;9.728;2022-07-23T16:09:34;24.70;68.10
17387;DHT22;8811;52.398;9.728;2022-07-23T16:12:01;24.60;67.80
17387;DHT22;8811;52.398;9.728;2022-07-23T16:14:30;24.50;68.20
17387;DHT22;8811;52.398;9.728;2022-07-23T16:16:57;24.50;69.10
17387;DHT22;8811;52.398;9.728;2022-07-23T16:19:25;24.40;69.00
17387;DHT22;8811;52.398;9.728;2022-07-23T16:21:52;24.40;70.40
17387;DHT22;8811;52.398;9.728;2022-07-23T16:24:21;24.40;69.90
17387;DHT22;8811;52.398;9.728;2022-07-23T16:26:52;24.20;69.80
17387;DHT22;8811;52.398;9.728;2022-07-23T16:29:19;24.20;69.80
17387;DHT22;8811;52.398;9.728;2022-07-23T16:31:48;24.30;69.90
17387;DHT22;8811;52.398;9.728;2022-07-23T16:34:19;24.20;70.30
17387;DHT22;8811;52.398;9.728;2022-07-23T16:36:48;24.10;71.20
17387;DHT22;8811;52.398;9.728;2022-07-23T16:39:15;24.20;71.60
17387;DHT22;8811;52.398;9.728;2022-07-23T16:41:43;24.10;71.40
17387;DHT22;8811;52.398;9.728;2022-07-23T16:44:13;24.00;70.80
17387;DHT22;8811;52.398;9.728;2022-07-23T16:46:40;23.90;70.90
17387;DHT22;8811;52.398;9.728;2022-07-23T16:49:09;23.80;71.30
17387;DHT22;8811;52.398;9.728;2022-07-23T16:51:37;23.80;72.60
17387;DHT22;8811;52.398;9.728;2022-07-23T16:54:04;23.80;72.50
17387;DHT22;8811;52.398;9.728;2022-07-23T16:56:33;23.70;71.90
17387;DHT22;8811;52.398;9.728;2022-07-23T16:59:01;23.70;72.20
17387;DHT22;8811;52.398;9.728;2022-07-23T17:01:33;23.70;72.90
17387;DHT22;8811;52.398;9.728;2022-07-23T17:04:00;23.70;72.90
17387;DHT22;8811;52.398;9.728;2022-07-23T17:06:30;23.60;73.50
17387;DHT22;8811;52.398;9.728;2022-07-23T17:08:57;23.60;74.00
17387;DHT22;8811;52.398;9.728;2022-07-23T17:11:24;23.60;73.30
17387;DHT22;8811;52.398;9.728;2022-07-23T17:13:53;23.60;73.70
17387;DHT22;8811;52.398;9.728;2022-07-23T17:16:21;23.50;73.90
17387;DHT22;8811;52.398;9.728;2022-07-23T17:18:51;23.40;74.10
17387;DHT22;8811;52.398;9.728;2022-07-23T17:21:18;23.40;74.20
17387;DHT22;8811;52.398;9.728;2022-07-23T17:23:50;23.40;74.90
17387;DHT22;8811;52.398;9.728;2022-07-23T17:26:19;23.30;75.50
17387;DHT22;8811;52.398;9.728;2022-07-23T17:28:47;23.30;75.80
17387;DHT22;8811;52.398;9.728;2022-07-23T17:31:14;23.30;74.90
17387;DHT22;8811;52.398;9.728;2022-07-23T17:33:41;23.20;75.80
17387;DHT22;8811;52.398;9.728;2022-07-23T17:36:09;23.20;76.10
17387;DHT22;8811;52.398;9.728;2022-07-23T17:38:36;23.10;76.20
17387;DHT22;8811;52.398;9.728;2022-07-23T17:41:10;23.10;76.20
17387;DHT22;8811;52.398;9.728;2022-07-23T17:43:37;23.10;76.70
17387;DHT22;8811;52.398;9.728;2022-07-23T17:46:05;23.00;77.30
17387;DHT22;8811;52.398;9.728;2022-07-23T17:48:34;23.10;78.50
17387;DHT22;8811;52.398;9.728;2022-07-23T17:51:02;22.90;77.30
17387;DHT22;8811;52.398;9.728;2022-07-23T17:53:32;22.90;77.80
17387;DHT22;8811;52.398;9.728;2022-07-23T17:56:01;22.90;78.70
17387;DHT22;8811;52.398;9.728;2022-07-23T17:58:32;22.90;78.30
17387;DHT22;8811;52.398;9.728;2022-07-23T18:00:59;22.80;78.70
17387;DHT22;8811;52.398;9.728;2022-07-23T18:03:26;22.80;79.30
17387;DHT22;8811;52.398;9.728;2022-07-23T18:05:54;22.80;79.20
17387;DHT22;8811;52.398;9.728;2022-07-23T18:08:22;22.70;78.90
17387;DHT22;8811;52.398;9.728;2022-07-23T18:10:51;22.60;79.10
17387;DHT22;8811;52.398;9.728;2022-07-23T18:13:20;22.60;80.00
17387;DHT22;8811;52.398;9.728;2022-07-23T18:15:51;22.60;80.10
17387;DHT22;8811;52.398;9.728;2022-07-23T18:18:25;22.60;80.20
17387;DHT22;8811;52.398;9.728;2022-07-23T18:20:54;22.50;80.50
17387;DHT22;8811;52.398;9.728;2022-07-23T18:23:22;22.50;81.30
17387;DHT22;8811;52.398;9.728;2022-07-23T18:25:50;22.40;81.10
17387;DHT22;8811;52.398;9.728;2022-07-23T18:28:20;22.40;81.80
17387;DHT22;8811;52.398;9.728;2022-07-23T18:30:53;22.40;81.50
17387;DHT22;8811;52.398;9.728;2022-07-23T18:33:24;22.30;81.70
17387;DHT22;8811;52.398;9.728;2022-07-23T18:35:51;22.20;82.90
17387;DHT22;8811;52.398;9.728;2022-07-23T18:38:19;22.20;83.00
17387;DHT22;8811;52.398;9.728;2022-07-23T18:40:48;22.10;83.00
17387;DHT22;8811;52.398;9.728;2022-07-23T18:43:23;22.10;84.20
17387;DHT22;8811;52.398;9.728;2022-07-23T18:45:54;22.00;84.00
17387;DHT22;8811;52.398;9.728;2022-07-23T18:48:22;22.00;84.10
17387;DHT22;8811;52.398;9.728;2022-07-23T18:50:53;21.90;84.70
17387;DHT22;8811;52.398;9.728;2022-07-23T18:53:21;21.90;85.10
17387;DHT22;8811;52.398;9.728;2022-07-23T18:55:50;21.80;85.30
17387;DHT22;8811;52.398;9.728;2022-07-23T18:58:18;21.80;85.60
17387;DHT22;8811;52.398;9.728;2022-07-23T19:12:12;21.60;87.10
17387;DHT22;8811;52.398;9.728;2022-07-23T19:14:40;21.60;87.60
17387;DHT22;8811;52.398;9.728;2022-07-23T19:17:09;21.50;88.10
17387;DHT22;8811;52.398;9.728;2022-07-23T19:19:37;21.50;87.50
17387;DHT22;8811;52.398;9.728;2022-07-23T19:22:05;21.40;88.40
17387;DHT22;8811;52.398;9.728;2022-07-23T19:24:34;21.40;88.30
17387;DHT22;8811;52.398;9.728;2022-07-23T19:27:04;21.30;88.90
17387;DHT22;8811;52.398;9.728;2022-07-23T19:29:33;21.20;88.60
17387;DHT22;8811;52.398;9.728;2022-07-23T19:32:04;21.20;90.40
17387;DHT22;8811;52.398;9.728;2022-07-23T19:34:39;21.10;89.50
17387;DHT22;8811;52.398;9.728;2022-07-23T19:37:06;21.10;89.80
17387;DHT22;8811;52.398;9.728;2022-07-23T19:39:41;21.00;90.30
17387;DHT22;8811;52.398;9.728;2022-07-23T19:42:09;21.00;90.70
17387;DHT22;8811;52.398;9.728;2022-07-23T19:44:57;20.90;90.50
17387;DHT22;8811;52.398;9.728;2022-07-23T19:47:28;20.80;90.70
17387;DHT22;8811;52.398;9.728;2022-07-23T19:49:59;20.80;91.00
17387;DHT22;8811;52.398;9.728;2022-07-23T19:52:28;20.70;90.60
17387;DHT22;8811;52.398;9.728;2022-07-23T19:54:59;20.60;91.20
17387;DHT22;8811;52.398;9.728;2022-07-23T19:57:28;20.60;91.20
17387;DHT22;8811;52.398;9.728;2022-07-23T20:00:03;20.50;91.50
17387;DHT22;8811;52.398;9.728;2022-07-23T20:05:45;20.30;91.90
17387;DHT22;8811;52.398;9.728;2022-07-23T20:08:13;20.30;92.30
17387;DHT22;8811;52.398;9.728;2022-07-23T20:10:43;20.20;92.20
17387;DHT22;8811;52.398;9.728;2022-07-23T20:13:18;20.10;92.40
17387;DHT22;8811;52.398;9.728;2022-07-23T20:19:19;20.10;92.90
17387;DHT22;8811;52.398;9.728;2022-07-23T20:24:16;20.00;93.30
17387;DHT22;8811;52.398;9.728;2022-07-23T20:26:53;19.90;93.30
17387;DHT22;8811;52.398;9.728;2022-07-23T20:31:58;19.90;93.80
17387;DHT22;8811;52.398;9.728;2022-07-23T20:34:28;19.80;93.90
17387;DHT22;8811;52.398;9.728;2022-07-23T20:36:55;19.80;94.00
17387;DHT22;8811;52.398;9.728;2022-07-23T20:39:23;19.80;94.10
17387;DHT22;8811;52.398;9.728;2022-07-23T20:44:18;19.80;94.60
17387;DHT22;8811;52.398;9.728;2022-07-23T20:46:51;19.70;94.60
17387;DHT22;8811;52.398;9.728;2022-07-23T20:49:18;19.70;95.00
17387;DHT22;8811;52.398;9.728;2022-07-23T20:51:52;19.70;95.10
17387;DHT22;8811;52.398;9.728;2022-07-23T20:54:20;19.60;95.10
17387;DHT22;8811;52.398;9.728;2022-07-23T20:56:48;19.50;95.50
17387;DHT22;8811;52.398;9.728;2022-07-23T20:59:18;19.50;95.40
17387;DHT22;8811;52.398;9.728;2022-07-23T21:01:45;19.40;95.60
17387;DHT22;8811;52.398;9.728;2022-07-23T21:09:12;19.30;96.30
17387;DHT22;8811;52.398;9.728;2022-07-23T21:11:40;19.20;96.70
17387;DHT22;8811;52.398;9.728;2022-07-23T21:14:09;19.20;97.00
17387;DHT22;8811;52.398;9.728;2022-07-23T21:16:39;19.20;97.30
17387;DHT22;8811;52.398;9.728;2022-07-23T21:19:13;19.10;97.60
17387;DHT22;8811;52.398;9.728;2022-07-23T21:21:46;19.10;97.70
17387;DHT22;8811;52.398;9.728;2022-07-23T21:24:15;19.10;97.80
17387;DHT22;8811;52.398;9.728;2022-07-23T21:26:46;19.00;98.30
17387;DHT22;8811;52.398;9.728;2022-07-23T21:29:13;19.00;98.60
17387;DHT22;8811;52.398;9.728;2022-07-23T21:31:45;19.00;98.90
17387;DHT22;8811;52.398;9.728;2022-07-23T21:34:15;19.00;98.70
17387;DHT22;8811;52.398;9.728;2022-07-23T21:36:42;19.00;98.70
17387;DHT22;8811;52.398;9.728;2022-07-23T21:39:13;19.00;98.90
17387;DHT22;8811;52.398;9.728;2022-07-23T21:41:45;18.80;99.10
17387;DHT22;8811;52.398;9.728;2022-07-23T21:44:13;18.90;99.90
17387;DHT22;8811;52.398;9.728;2022-07-23T21:49:13;18.80;99.40
17387;DHT22;8811;52.398;9.728;2022-07-23T21:51:55;18.70;99.90
17387;DHT22;8811;52.398;9.728;2022-07-23T21:56:54;18.70;99.90
17387;DHT22;8811;52.398;9.728;2022-07-23T21:59:21;18.60;99.90
17387;DHT22;8811;52.398;9.728;2022-07-23T22:01:49;18.60;99.90
17387;DHT22;8811;52.398;9.728;2022-07-23T22:04:18;18.60;99.90
17387;DHT22;8811;52.398;9.728;2022-07-23T22:06:47;18.60;99.90
17387;DHT22;8811;52.398;9.728;2022-07-23T22:09:15;18.60;99.90
17387;DHT22;8811;52.398;9.728;2022-07-23T22:11:44;18.60;99.90
17387;DHT22;8811;52.398;9.728;2022-07-23T22:14:15;18.50;99.90
17387;DHT22;8811;52.398;9.728;2022-07-23T22:16:43;18.50;99.90
17387;DHT22;8811;52.398;9.728;2022-07-23T22:19:10;18.50;99.90
17387;DHT22;8811;52.398;9.728;2022-07-23T22:21:38;18.50;99.90
17387;DHT22;8811;52.398;9.728;2022-07-23T22:24:09;18.40;99.90
17387;DHT22;8811;52.398;9.728;2022-07-23T22:29:08;18.30;99.90
17387;DHT22;8811;52.398;9.728;2022-07-23T22:31:37;18.30;99.90
17387;DHT22;8811;52.398;9.728;2022-07-23T22:34:05;18.30;99.90
17387;DHT22;8811;52.398;9.728;2022-07-23T22:36:34;18.20;99.90
17387;DHT22;8811;52.398;9.728;2022-07-23T22:39:01;18.20;99.90
17387;DHT22;8811;52.398;9.728;2022-07-23T22:41:30;18.00;99.90
17387;DHT22;8811;52.398;9.728;2022-07-23T22:43:59;18.10;99.90
17387;DHT22;8811;52.398;9.728;2022-07-23T22:46:34;18.10;99.90
17387;DHT22;8811;52.398;9.728;2022-07-23T22:49:03;18.10;99.90
17387;DHT22;8811;52.398;9.728;2022-07-23T22:51:30;18.10;99.90
17387;DHT22;8811;52.398;9.728;2022-07-23T22:54:03;18.00;99.90
17387;DHT22;8811;52.398;9.728;2022-07-23T22:56:30;18.00;99.90
17387;DHT22;8811;52.398;9.728;2022-07-23T22:58:58;18.00;99.90
